Etusivu
METAR-TAF:

METAR-TAF

Lentoasemat :

Pjongjang, Pohjois-Korea

Sunanin kansainvälinen lentoasema

Leveyspiiri: 39-02N, Pituuspiiri: 125-47E, korkeus merenpinnasta: 36 m

METAR: puuttuu

Aika: 13:22 (04:52 UTC)

Sääennuste

Tämä raportti tehtiin 7 tuntia ja 22 minuuttia sitten, kello 21.30 UTC
Ennuste voimassa 23. päivästä klo 00 UTC - 23. päivään klo 24 UTC
Tuuli 6 kn lännestä/lounaasta
Näkyvyys: 8000 m
Pilvistä 2000 ft:n korkeudessa
Ajoittain
23. päivästä klo 06 UTC - 23. päivään klo 12 UTC
Näkyvyys: 4000 m
heikkoja vesikuuroja

TAF: ZKPY 222130Z 2300/2324 24003MPS 8000 OVC020 TEMPO 2306/2312 4000 -SHRA

Säähavainnot ja -ennusteet yli 4000 lentoasemalta (METAR- ja TAF-raportit).

Käytössä olevat sääasemat on merkitty karttaan keltaisilla ja punaisilla pisteillä.

Aseta hiiri pisteen päälle nähdäksesi sääaseman nimen.

Klikkaa sitten nähdäksesi säähavainnot ja -ennusteet.

Kartan vaihtaminen: klikkaa mustalla rastilla varustettuja vihreitä pisteitä, niin voit zoomata sisään; viivalla varustettua vihreää pistettä, niin voit zoomata ulos tai vihreitä nuolia, niin pääset viereisille kartoille.


METAR-TAF: